sensor_id;sensor_type;location;lat;lon;timestamp;P1;durP1;ratioP1;P2;durP2;ratioP2
9222;SDS011;7557;51.698;3.942;2024-01-11T00:02:27;15.33;;;13.23;;
9222;SDS011;7557;51.698;3.942;2024-01-11T00:04:55;18.43;;;15.60;;
9222;SDS011;7557;51.698;3.942;2024-01-11T00:07:22;13.97;;;12.47;;
9222;SDS011;7557;51.698;3.942;2024-01-11T00:09:50;15.17;;;13.57;;
9222;SDS011;7557;51.698;3.942;2024-01-11T00:12:19;20.03;;;14.47;;
9222;SDS011;7557;51.698;3.942;2024-01-11T00:14:46;16.27;;;12.07;;
9222;SDS011;7557;51.698;3.942;2024-01-11T00:17:14;14.70;;;13.07;;
9222;SDS011;7557;51.698;3.942;2024-01-11T00:19:41;18.33;;;16.53;;
9222;SDS011;7557;51.698;3.942;2024-01-11T00:22:09;14.13;;;12.50;;
9222;SDS011;7557;51.698;3.942;2024-01-11T00:24:36;14.37;;;12.07;;
9222;SDS011;7557;51.698;3.942;2024-01-11T00:27:04;16.00;;;12.60;;
9222;SDS011;7557;51.698;3.942;2024-01-11T00:29:33;15.23;;;13.67;;
9222;SDS011;7557;51.698;3.942;2024-01-11T00:32:02;13.70;;;12.30;;
9222;SDS011;7557;51.698;3.942;2024-01-11T00:34:30;15.93;;;12.60;;
9222;SDS011;7557;51.698;3.942;2024-01-11T00:36:58;14.03;;;12.53;;
9222;SDS011;7557;51.698;3.942;2024-01-11T00:39:25;16.33;;;13.20;;
9222;SDS011;7557;51.698;3.942;2024-01-11T00:41:53;15.40;;;13.67;;
9222;SDS011;7557;51.698;3.942;2024-01-11T00:44:20;14.97;;;13.17;;
9222;SDS011;7557;51.698;3.942;2024-01-11T00:46:49;15.83;;;12.63;;
9222;SDS011;7557;51.698;3.942;2024-01-11T00:49:17;14.70;;;12.33;;
9222;SDS011;7557;51.698;3.942;2024-01-11T00:51:44;16.27;;;13.27;;
9222;SDS011;7557;51.698;3.942;2024-01-11T00:54:12;16.27;;;12.83;;
9222;SDS011;7557;51.698;3.942;2024-01-11T00:56:39;14.33;;;12.53;;
9222;SDS011;7557;51.698;3.942;2024-01-11T00:59:07;14.67;;;12.63;;
9222;SDS011;7557;51.698;3.942;2024-01-11T01:01:34;13.63;;;12.27;;
9222;SDS011;7557;51.698;3.942;2024-01-11T01:04:04;14.47;;;12.97;;
9222;SDS011;7557;51.698;3.942;2024-01-11T01:06:31;14.57;;;12.13;;
9222;SDS011;7557;51.698;3.942;2024-01-11T01:08:58;15.50;;;13.37;;
9222;SDS011;7557;51.698;3.942;2024-01-11T01:11:26;14.50;;;12.97;;
9222;SDS011;7557;51.698;3.942;2024-01-11T01:13:53;15.10;;;12.43;;
9222;SDS011;7557;51.698;3.942;2024-01-11T01:16:21;17.53;;;14.53;;
9222;SDS011;7557;51.698;3.942;2024-01-11T01:18:48;15.07;;;13.47;;
9222;SDS011;7557;51.698;3.942;2024-01-11T01:21:18;18.20;;;16.27;;
9222;SDS011;7557;51.698;3.942;2024-01-11T01:23:45;14.07;;;12.60;;
9222;SDS011;7557;51.698;3.942;2024-01-11T01:26:13;15.10;;;13.13;;
9222;SDS011;7557;51.698;3.942;2024-01-11T01:28:40;17.87;;;12.60;;
9222;SDS011;7557;51.698;3.942;2024-01-11T01:31:10;16.10;;;12.93;;
9222;SDS011;7557;51.698;3.942;2024-01-11T01:33:40;16.40;;;13.47;;
9222;SDS011;7557;51.698;3.942;2024-01-11T01:36:08;17.33;;;14.30;;
9222;SDS011;7557;51.698;3.942;2024-01-11T01:38:41;17.50;;;13.17;;
9222;SDS011;7557;51.698;3.942;2024-01-11T01:41:09;17.57;;;12.70;;
9222;SDS011;7557;51.698;3.942;2024-01-11T01:43:36;16.23;;;14.50;;
9222;SDS011;7557;51.698;3.942;2024-01-11T01:46:04;19.37;;;12.30;;
9222;SDS011;7557;51.698;3.942;2024-01-11T01:48:33;16.33;;;12.93;;
9222;SDS011;7557;51.698;3.942;2024-01-11T01:51:01;14.87;;;12.73;;
9222;SDS011;7557;51.698;3.942;2024-01-11T01:53:30;15.83;;;12.80;;
9222;SDS011;7557;51.698;3.942;2024-01-11T01:56:00;15.37;;;12.93;;
9222;SDS011;7557;51.698;3.942;2024-01-11T01:58:27;18.13;;;13.97;;
9222;SDS011;7557;51.698;3.942;2024-01-11T02:00:56;15.60;;;12.70;;
9222;SDS011;7557;51.698;3.942;2024-01-11T02:03:24;19.20;;;13.60;;
9222;SDS011;7557;51.698;3.942;2024-01-11T02:05:55;15.27;;;12.83;;
9222;SDS011;7557;51.698;3.942;2024-01-11T02:08:23;15.77;;;12.70;;
9222;SDS011;7557;51.698;3.942;2024-01-11T02:10:52;15.33;;;13.53;;
9222;SDS011;7557;51.698;3.942;2024-01-11T02:13:23;16.33;;;13.27;;
9222;SDS011;7557;51.698;3.942;2024-01-11T02:15:50;17.80;;;13.10;;
9222;SDS011;7557;51.698;3.942;2024-01-11T02:18:18;17.60;;;13.47;;
9222;SDS011;7557;51.698;3.942;2024-01-11T02:20:45;14.87;;;12.40;;
9222;SDS011;7557;51.698;3.942;2024-01-11T02:23:14;15.10;;;12.33;;
9222;SDS011;7557;51.698;3.942;2024-01-11T02:25:46;14.53;;;13.03;;
9222;SDS011;7557;51.698;3.942;2024-01-11T02:28:15;18.07;;;13.57;;
9222;SDS011;7557;51.698;3.942;2024-01-11T02:30:42;16.53;;;13.13;;
9222;SDS011;7557;51.698;3.942;2024-01-11T02:33:10;13.97;;;12.13;;
9222;SDS011;7557;51.698;3.942;2024-01-11T02:35:43;17.70;;;13.20;;
9222;SDS011;7557;51.698;3.942;2024-01-11T02:38:11;18.33;;;12.80;;
9222;SDS011;7557;51.698;3.942;2024-01-11T02:40:39;16.50;;;13.73;;
9222;SDS011;7557;51.698;3.942;2024-01-11T02:43:10;14.27;;;12.63;;
9222;SDS011;7557;51.698;3.942;2024-01-11T02:45:38;14.20;;;11.80;;
9222;SDS011;7557;51.698;3.942;2024-01-11T02:48:06;17.40;;;12.93;;
9222;SDS011;7557;51.698;3.942;2024-01-11T02:50:33;14.43;;;12.83;;
9222;SDS011;7557;51.698;3.942;2024-01-11T02:53:01;14.67;;;13.17;;
9222;SDS011;7557;51.698;3.942;2024-01-11T02:55:29;14.10;;;11.80;;
9222;SDS011;7557;51.698;3.942;2024-01-11T02:57:56;15.27;;;13.23;;
9222;SDS011;7557;51.698;3.942;2024-01-11T03:00:29;19.33;;;13.33;;
9222;SDS011;7557;51.698;3.942;2024-01-11T03:02:57;17.13;;;12.13;;
9222;SDS011;7557;51.698;3.942;2024-01-11T03:05:24;15.23;;;12.37;;
9222;SDS011;7557;51.698;3.942;2024-01-11T03:07:52;15.13;;;12.03;;
9222;SDS011;7557;51.698;3.942;2024-01-11T03:10:21;13.10;;;11.53;;
9222;SDS011;7557;51.698;3.942;2024-01-11T03:12:49;12.93;;;11.27;;
9222;SDS011;7557;51.698;3.942;2024-01-11T03:15:16;13.20;;;11.67;;
9222;SDS011;7557;51.698;3.942;2024-01-11T03:17:45;16.67;;;12.30;;
9222;SDS011;7557;51.698;3.942;2024-01-11T03:20:13;14.27;;;12.37;;
9222;SDS011;7557;51.698;3.942;2024-01-11T03:22:44;14.97;;;12.60;;
9222;SDS011;7557;51.698;3.942;2024-01-11T03:25:12;14.90;;;12.07;;
9222;SDS011;7557;51.698;3.942;2024-01-11T03:27:42;17.40;;;13.60;;
9222;SDS011;7557;51.698;3.942;2024-01-11T03:30:10;16.57;;;13.00;;
9222;SDS011;7557;51.698;3.942;2024-01-11T03:32:38;15.97;;;12.50;;
9222;SDS011;7557;51.698;3.942;2024-01-11T03:35:08;14.43;;;12.00;;
9222;SDS011;7557;51.698;3.942;2024-01-11T03:37:36;17.00;;;13.50;;
9222;SDS011;7557;51.698;3.942;2024-01-11T03:40:04;18.40;;;13.30;;
9222;SDS011;7557;51.698;3.942;2024-01-11T03:42:32;15.73;;;12.90;;
9222;SDS011;7557;51.698;3.942;2024-01-11T03:45:00;15.20;;;13.63;;
9222;SDS011;7557;51.698;3.942;2024-01-11T03:47:28;15.40;;;12.20;;
9222;SDS011;7557;51.698;3.942;2024-01-11T03:49:55;16.23;;;13.93;;
9222;SDS011;7557;51.698;3.942;2024-01-11T03:52:24;16.13;;;13.53;;
9222;SDS011;7557;51.698;3.942;2024-01-11T03:54:52;17.33;;;14.57;;
9222;SDS011;7557;51.698;3.942;2024-01-11T03:57:20;14.97;;;13.30;;
9222;SDS011;7557;51.698;3.942;2024-01-11T03:59:47;19.13;;;13.53;;
9222;SDS011;7557;51.698;3.942;2024-01-11T04:02:15;17.87;;;14.03;;
9222;SDS011;7557;51.698;3.942;2024-01-11T04:04:42;15.67;;;12.90;;
9222;SDS011;7557;51.698;3.942;2024-01-11T04:07:09;15.30;;;12.93;;
9222;SDS011;7557;51.698;3.942;2024-01-11T04:09:38;20.37;;;13.90;;
9222;SDS011;7557;51.698;3.942;2024-01-11T04:12:06;21.37;;;14.53;;
9222;SDS011;7557;51.698;3.942;2024-01-11T04:14:37;17.70;;;13.97;;
9222;SDS011;7557;51.698;3.942;2024-01-11T04:17:06;16.50;;;13.57;;
9222;SDS011;7557;51.698;3.942;2024-01-11T04:19:33;17.37;;;14.87;;
9222;SDS011;7557;51.698;3.942;2024-01-11T04:22:01;15.77;;;13.33;;
9222;SDS011;7557;51.698;3.942;2024-01-11T04:24:29;20.00;;;17.97;;
9222;SDS011;7557;51.698;3.942;2024-01-11T04:26:58;21.83;;;19.43;;
9222;SDS011;7557;51.698;3.942;2024-01-11T04:29:25;21.23;;;16.33;;
9222;SDS011;7557;51.698;3.942;2024-01-11T04:31:53;23.40;;;19.13;;
9222;SDS011;7557;51.698;3.942;2024-01-11T04:34:21;18.93;;;14.50;;
9222;SDS011;7557;51.698;3.942;2024-01-11T04:36:48;21.00;;;18.83;;
9222;SDS011;7557;51.698;3.942;2024-01-11T04:39:16;37.80;;;34.77;;
9222;SDS011;7557;51.698;3.942;2024-01-11T04:41:43;23.30;;;20.80;;
9222;SDS011;7557;51.698;3.942;2024-01-11T04:44:14;21.97;;;19.77;;
9222;SDS011;7557;51.698;3.942;2024-01-11T04:46:43;34.77;;;31.70;;
9222;SDS011;7557;51.698;3.942;2024-01-11T04:49:13;21.27;;;18.63;;
9222;SDS011;7557;51.698;3.942;2024-01-11T04:51:41;22.67;;;17.47;;
9222;SDS011;7557;51.698;3.942;2024-01-11T04:54:08;20.47;;;18.30;;
9222;SDS011;7557;51.698;3.942;2024-01-11T04:56:38;21.30;;;17.57;;
9222;SDS011;7557;51.698;3.942;2024-01-11T04:59:06;19.97;;;16.97;;
9222;SDS011;7557;51.698;3.942;2024-01-11T05:01:35;21.07;;;18.80;;
9222;SDS011;7557;51.698;3.942;2024-01-11T05:04:02;32.70;;;29.73;;
9222;SDS011;7557;51.698;3.942;2024-01-11T05:06:30;19.50;;;17.40;;
9222;SDS011;7557;51.698;3.942;2024-01-11T05:08:57;18.60;;;16.53;;
9222;SDS011;7557;51.698;3.942;2024-01-11T05:11:25;18.90;;;15.03;;
9222;SDS011;7557;51.698;3.942;2024-01-11T05:13:52;17.70;;;14.30;;
9222;SDS011;7557;51.698;3.942;2024-01-11T05:16:20;16.50;;;13.77;;
9222;SDS011;7557;51.698;3.942;2024-01-11T05:18:50;22.03;;;14.00;;
9222;SDS011;7557;51.698;3.942;2024-01-11T05:21:19;19.70;;;15.07;;
9222;SDS011;7557;51.698;3.942;2024-01-11T05:23:47;18.30;;;14.10;;
9222;SDS011;7557;51.698;3.942;2024-01-11T05:26:15;21.57;;;14.40;;
9222;SDS011;7557;51.698;3.942;2024-01-11T05:28:44;26.23;;;23.83;;
9222;SDS011;7557;51.698;3.942;2024-01-11T05:31:12;25.30;;;21.50;;
9222;SDS011;7557;51.698;3.942;2024-01-11T05:33:40;27.03;;;24.63;;
9222;SDS011;7557;51.698;3.942;2024-01-11T05:36:09;18.37;;;16.43;;
9222;SDS011;7557;51.698;3.942;2024-01-11T05:38:38;34.77;;;31.33;;
9222;SDS011;7557;51.698;3.942;2024-01-11T05:41:06;31.27;;;28.03;;
9222;SDS011;7557;51.698;3.942;2024-01-11T05:43:34;59.97;;;55.53;;
9222;SDS011;7557;51.698;3.942;2024-01-11T05:46:02;21.23;;;17.60;;
9222;SDS011;7557;51.698;3.942;2024-01-11T05:48:29;21.67;;;16.73;;
9222;SDS011;7557;51.698;3.942;2024-01-11T05:50:57;21.43;;;16.47;;
9222;SDS011;7557;51.698;3.942;2024-01-11T05:53:27;24.70;;;16.47;;
9222;SDS011;7557;51.698;3.942;2024-01-11T05:55:55;25.13;;;16.73;;
9222;SDS011;7557;51.698;3.942;2024-01-11T05:58:22;23.53;;;16.40;;
9222;SDS011;7557;51.698;3.942;2024-01-11T06:00:50;24.47;;;18.13;;
9222;SDS011;7557;51.698;3.942;2024-01-11T06:03:18;28.43;;;25.57;;
9222;SDS011;7557;51.698;3.942;2024-01-11T06:05:46;40.37;;;37.10;;
9222;SDS011;7557;51.698;3.942;2024-01-11T06:08:14;123.17;;;115.40;;
9222;SDS011;7557;51.698;3.942;2024-01-11T06:10:43;27.37;;;20.23;;
9222;SDS011;7557;51.698;3.942;2024-01-11T06:13:11;23.97;;;17.10;;
9222;SDS011;7557;51.698;3.942;2024-01-11T06:15:38;23.93;;;17.33;;
9222;SDS011;7557;51.698;3.942;2024-01-11T06:18:06;22.97;;;17.93;;
9222;SDS011;7557;51.698;3.942;2024-01-11T06:20:34;23.13;;;16.60;;
9222;SDS011;7557;51.698;3.942;2024-01-11T06:23:01;21.80;;;17.17;;
9222;SDS011;7557;51.698;3.942;2024-01-11T06:25:29;25.43;;;18.03;;
9222;SDS011;7557;51.698;3.942;2024-01-11T06:27:58;22.13;;;17.97;;
9222;SDS011;7557;51.698;3.942;2024-01-11T06:30:25;25.63;;;19.87;;
9222;SDS011;7557;51.698;3.942;2024-01-11T06:32:53;23.30;;;19.63;;
9222;SDS011;7557;51.698;3.942;2024-01-11T06:35:21;29.50;;;20.23;;
9222;SDS011;7557;51.698;3.942;2024-01-11T06:37:48;28.10;;;20.00;;
9222;SDS011;7557;51.698;3.942;2024-01-11T06:40:16;26.33;;;19.63;;
9222;SDS011;7557;51.698;3.942;2024-01-11T06:42:44;25.17;;;19.70;;
9222;SDS011;7557;51.698;3.942;2024-01-11T06:45:13;25.47;;;19.50;;
9222;SDS011;7557;51.698;3.942;2024-01-11T06:47:41;23.47;;;18.00;;
9222;SDS011;7557;51.698;3.942;2024-01-11T06:50:14;29.93;;;20.63;;
9222;SDS011;7557;51.698;3.942;2024-01-11T06:52:42;25.77;;;19.07;;
9222;SDS011;7557;51.698;3.942;2024-01-11T06:55:09;23.87;;;19.33;;
9222;SDS011;7557;51.698;3.942;2024-01-11T06:57:37;26.53;;;20.07;;
9222;SDS011;7557;51.698;3.942;2024-01-11T07:00:05;25.77;;;20.57;;
9222;SDS011;7557;51.698;3.942;2024-01-11T07:02:35;24.50;;;19.17;;
9222;SDS011;7557;51.698;3.942;2024-01-11T07:05:04;25.20;;;18.93;;
9222;SDS011;7557;51.698;3.942;2024-01-11T07:07:33;25.97;;;18.33;;
9222;SDS011;7557;51.698;3.942;2024-01-11T07:10:00;25.50;;;19.40;;
9222;SDS011;7557;51.698;3.942;2024-01-11T07:12:30;31.00;;;27.17;;
9222;SDS011;7557;51.698;3.942;2024-01-11T07:14:58;30.63;;;21.53;;
9222;SDS011;7557;51.698;3.942;2024-01-11T07:17:25;29.17;;;22.37;;
9222;SDS011;7557;51.698;3.942;2024-01-11T07:19:54;39.90;;;36.00;;
9222;SDS011;7557;51.698;3.942;2024-01-11T07:22:22;29.60;;;23.30;;
9222;SDS011;7557;51.698;3.942;2024-01-11T07:24:50;40.73;;;36.97;;
9222;SDS011;7557;51.698;3.942;2024-01-11T07:27:17;32.07;;;23.40;;
9222;SDS011;7557;51.698;3.942;2024-01-11T07:29:45;44.20;;;39.80;;
9222;SDS011;7557;51.698;3.942;2024-01-11T07:32:12;30.27;;;25.60;;
9222;SDS011;7557;51.698;3.942;2024-01-11T07:34:40;37.27;;;26.63;;
9222;SDS011;7557;51.698;3.942;2024-01-11T07:37:09;33.57;;;23.13;;
9222;SDS011;7557;51.698;3.942;2024-01-11T07:39:36;30.97;;;23.90;;
9222;SDS011;7557;51.698;3.942;2024-01-11T07:42:03;32.27;;;23.50;;
9222;SDS011;7557;51.698;3.942;2024-01-11T07:44:31;34.73;;;23.63;;
9222;SDS011;7557;51.698;3.942;2024-01-11T07:46:59;33.10;;;23.37;;
9222;SDS011;7557;51.698;3.942;2024-01-11T07:49:26;31.37;;;23.67;;
9222;SDS011;7557;51.698;3.942;2024-01-11T07:51:53;32.90;;;22.97;;
9222;SDS011;7557;51.698;3.942;2024-01-11T07:54:23;38.50;;;25.50;;
9222;SDS011;7557;51.698;3.942;2024-01-11T07:56:50;35.00;;;31.17;;
9222;SDS011;7557;51.698;3.942;2024-01-11T07:59:18;32.50;;;23.60;;
9222;SDS011;7557;51.698;3.942;2024-01-11T08:01:46;34.50;;;25.07;;
9222;SDS011;7557;51.698;3.942;2024-01-11T08:04:15;34.60;;;23.87;;
9222;SDS011;7557;51.698;3.942;2024-01-11T08:06:42;34.13;;;22.67;;
9222;SDS011;7557;51.698;3.942;2024-01-11T08:09:09;33.30;;;25.77;;
9222;SDS011;7557;51.698;3.942;2024-01-11T08:11:42;32.80;;;23.97;;
9222;SDS011;7557;51.698;3.942;2024-01-11T08:14:09;32.53;;;24.03;;
9222;SDS011;7557;51.698;3.942;2024-01-11T08:16:40;35.63;;;24.00;;
9222;SDS011;7557;51.698;3.942;2024-01-11T08:19:08;33.23;;;25.17;;
9222;SDS011;7557;51.698;3.942;2024-01-11T08:21:38;35.87;;;25.30;;
9222;SDS011;7557;51.698;3.942;2024-01-11T08:24:06;35.60;;;23.40;;
9222;SDS011;7557;51.698;3.942;2024-01-11T08:26:34;37.57;;;28.50;;
9222;SDS011;7557;51.698;3.942;2024-01-11T08:29:03;33.50;;;25.20;;
9222;SDS011;7557;51.698;3.942;2024-01-11T08:31:31;36.40;;;25.57;;
9222;SDS011;7557;51.698;3.942;2024-01-11T08:33:59;35.33;;;26.67;;
9222;SDS011;7557;51.698;3.942;2024-01-11T08:36:30;34.30;;;24.30;;
9222;SDS011;7557;51.698;3.942;2024-01-11T08:39:00;35.47;;;24.50;;
9222;SDS011;7557;51.698;3.942;2024-01-11T08:41:30;38.93;;;27.57;;
9222;SDS011;7557;51.698;3.942;2024-01-11T08:43:58;37.53;;;25.97;;
9222;SDS011;7557;51.698;3.942;2024-01-11T08:46:26;35.83;;;25.97;;
9222;SDS011;7557;51.698;3.942;2024-01-11T08:48:56;45.50;;;41.10;;
9222;SDS011;7557;51.698;3.942;2024-01-11T08:51:23;43.67;;;38.83;;
9222;SDS011;7557;51.698;3.942;2024-01-11T08:53:51;171.03;;;160.53;;
9222;SDS011;7557;51.698;3.942;2024-01-11T08:56:19;104.47;;;97.47;;
9222;SDS011;7557;51.698;3.942;2024-01-11T08:58:46;64.50;;;59.07;;
9222;SDS011;7557;51.698;3.942;2024-01-11T09:01:13;76.70;;;70.73;;
9222;SDS011;7557;51.698;3.942;2024-01-11T09:03:42;81.43;;;75.30;;
9222;SDS011;7557;51.698;3.942;2024-01-11T09:06:10;102.50;;;94.97;;
9222;SDS011;7557;51.698;3.942;2024-01-11T09:08:37;171.97;;;161.73;;
9222;SDS011;7557;51.698;3.942;2024-01-11T09:11:06;85.40;;;78.57;;
9222;SDS011;7557;51.698;3.942;2024-01-11T09:13:35;86.77;;;80.03;;
9222;SDS011;7557;51.698;3.942;2024-01-11T09:16:03;157.90;;;149.07;;
9222;SDS011;7557;51.698;3.942;2024-01-11T09:18:32;64.43;;;59.17;;
9222;SDS011;7557;51.698;3.942;2024-01-11T09:21:01;87.93;;;81.23;;
9222;SDS011;7557;51.698;3.942;2024-01-11T09:23:29;68.37;;;62.40;;
9222;SDS011;7557;51.698;3.942;2024-01-11T09:25:56;83.90;;;77.87;;
9222;SDS011;7557;51.698;3.942;2024-01-11T09:28:24;58.33;;;52.87;;
9222;SDS011;7557;51.698;3.942;2024-01-11T09:30:51;86.63;;;80.17;;
9222;SDS011;7557;51.698;3.942;2024-01-11T09:33:19;42.90;;;38.23;;
9222;SDS011;7557;51.698;3.942;2024-01-11T09:35:46;87.80;;;81.57;;
9222;SDS011;7557;51.698;3.942;2024-01-11T09:38:15;109.17;;;101.73;;
9222;SDS011;7557;51.698;3.942;2024-01-11T09:40:43;78.53;;;72.97;;
9222;SDS011;7557;51.698;3.942;2024-01-11T09:43:10;34.83;;;30.87;;
9222;SDS011;7557;51.698;3.942;2024-01-11T09:45:38;46.77;;;41.97;;
9222;SDS011;7557;51.698;3.942;2024-01-11T09:48:06;40.03;;;35.90;;
9222;SDS011;7557;51.698;3.942;2024-01-11T09:50:35;56.90;;;51.70;;
9222;SDS011;7557;51.698;3.942;2024-01-11T09:53:05;68.57;;;62.87;;
9222;SDS011;7557;51.698;3.942;2024-01-11T09:55:36;60.93;;;55.93;;
9222;SDS011;7557;51.698;3.942;2024-01-11T09:58:04;129.60;;;121.37;;
9222;SDS011;7557;51.698;3.942;2024-01-11T10:00:32;154.93;;;144.33;;
9222;SDS011;7557;51.698;3.942;2024-01-11T10:03:01;140.57;;;128.37;;
9222;SDS011;7557;51.698;3.942;2024-01-11T10:05:29;68.17;;;63.17;;
9222;SDS011;7557;51.698;3.942;2024-01-11T10:08:02;41.77;;;37.63;;
9222;SDS011;7557;51.698;3.942;2024-01-11T10:10:29;51.03;;;46.80;;
9222;SDS011;7557;51.698;3.942;2024-01-11T10:12:59;39.57;;;35.53;;
9222;SDS011;7557;51.698;3.942;2024-01-11T10:15:27;29.33;;;26.20;;
9222;SDS011;7557;51.698;3.942;2024-01-11T10:17:54;70.63;;;64.93;;
9222;SDS011;7557;51.698;3.942;2024-01-11T10:20:22;79.70;;;73.67;;
9222;SDS011;7557;51.698;3.942;2024-01-11T10:22:50;56.57;;;51.93;;
9222;SDS011;7557;51.698;3.942;2024-01-11T10:25:17;440.37;;;271.87;;
9222;SDS011;7557;51.698;3.942;2024-01-11T10:27:45;127.63;;;117.70;;
9222;SDS011;7557;51.698;3.942;2024-01-11T10:30:15;172.07;;;158.03;;
9222;SDS011;7557;51.698;3.942;2024-01-11T10:32:43;78.33;;;73.33;;
9222;SDS011;7557;51.698;3.942;2024-01-11T10:35:11;51.47;;;47.03;;
9222;SDS011;7557;51.698;3.942;2024-01-11T10:37:38;87.17;;;81.00;;
9222;SDS011;7557;51.698;3.942;2024-01-11T10:40:07;77.77;;;71.67;;
9222;SDS011;7557;51.698;3.942;2024-01-11T10:42:39;98.27;;;92.27;;
9222;SDS011;7557;51.698;3.942;2024-01-11T10:45:10;44.80;;;41.10;;
9222;SDS011;7557;51.698;3.942;2024-01-11T10:47:45;26.17;;;20.37;;
9222;SDS011;7557;51.698;3.942;2024-01-11T10:50:18;30.03;;;27.13;;
9222;SDS011;7557;51.698;3.942;2024-01-11T10:52:49;27.37;;;23.23;;
9222;SDS011;7557;51.698;3.942;2024-01-11T10:55:29;219.13;;;201.67;;
9222;SDS011;7557;51.698;3.942;2024-01-11T10:57:59;192.87;;;177.87;;
9222;SDS011;7557;51.698;3.942;2024-01-11T11:00:29;203.10;;;183.93;;
9222;SDS011;7557;51.698;3.942;2024-01-11T11:02:59;192.20;;;180.07;;
9222;SDS011;7557;51.698;3.942;2024-01-11T11:05:29;108.17;;;101.07;;
9222;SDS011;7557;51.698;3.942;2024-01-11T11:07:57;361.33;;;338.63;;
9222;SDS011;7557;51.698;3.942;2024-01-11T11:10:27;209.93;;;197.33;;
9222;SDS011;7557;51.698;3.942;2024-01-11T11:12:57;69.37;;;64.53;;
9222;SDS011;7557;51.698;3.942;2024-01-11T11:15:27;336.40;;;213.73;;
9222;SDS011;7557;51.698;3.942;2024-01-11T11:17:56;388.30;;;353.47;;
9222;SDS011;7557;51.698;3.942;2024-01-11T11:20:24;94.83;;;88.53;;
9222;SDS011;7557;51.698;3.942;2024-01-11T11:23:02;152.60;;;142.10;;
9222;SDS011;7557;51.698;3.942;2024-01-11T11:25:30;113.50;;;105.43;;
9222;SDS011;7557;51.698;3.942;2024-01-11T11:27:58;536.37;;;493.30;;
9222;SDS011;7557;51.698;3.942;2024-01-11T11:30:29;478.53;;;437.67;;
9222;SDS011;7557;51.698;3.942;2024-01-11T11:32:58;371.63;;;344.33;;
9222;SDS011;7557;51.698;3.942;2024-01-11T11:35:35;112.90;;;105.77;;
9222;SDS011;7557;51.698;3.942;2024-01-11T11:38:04;184.37;;;171.33;;
9222;SDS011;7557;51.698;3.942;2024-01-11T11:40:33;103.37;;;96.50;;
9222;SDS011;7557;51.698;3.942;2024-01-11T11:43:04;146.13;;;136.83;;
9222;SDS011;7557;51.698;3.942;2024-01-11T11:45:32;64.70;;;60.07;;
9222;SDS011;7557;51.698;3.942;2024-01-11T11:48:01;222.50;;;209.60;;
9222;SDS011;7557;51.698;3.942;2024-01-11T11:51:00;62.87;;;58.43;;
9222;SDS011;7557;51.698;3.942;2024-01-11T11:53:30;106.37;;;99.40;;
9222;SDS011;7557;51.698;3.942;2024-01-11T11:56:00;73.57;;;68.63;;
9222;SDS011;7557;51.698;3.942;2024-01-11T11:58:28;70.90;;;66.37;;
9222;SDS011;7557;51.698;3.942;2024-01-11T12:00:57;171.00;;;161.73;;
9222;SDS011;7557;51.698;3.942;2024-01-11T12:03:28;92.40;;;85.27;;
9222;SDS011;7557;51.698;3.942;2024-01-11T12:05:58;67.27;;;62.43;;
9222;SDS011;7557;51.698;3.942;2024-01-11T12:08:26;46.27;;;41.97;;
9222;SDS011;7557;51.698;3.942;2024-01-11T12:10:55;58.13;;;53.53;;
9222;SDS011;7557;51.698;3.942;2024-01-11T12:13:25;91.73;;;85.43;;
9222;SDS011;7557;51.698;3.942;2024-01-11T12:15:55;46.40;;;42.77;;
9222;SDS011;7557;51.698;3.942;2024-01-11T12:18:27;35.87;;;32.93;;
9222;SDS011;7557;51.698;3.942;2024-01-11T12:20:55;50.43;;;46.93;;
9222;SDS011;7557;51.698;3.942;2024-01-11T12:23:28;42.80;;;39.80;;
9222;SDS011;7557;51.698;3.942;2024-01-11T12:26:01;33.60;;;30.70;;
9222;SDS011;7557;51.698;3.942;2024-01-11T12:28:42;35.77;;;32.67;;
9222;SDS011;7557;51.698;3.942;2024-01-11T12:31:11;60.47;;;56.50;;
9222;SDS011;7557;51.698;3.942;2024-01-11T12:33:41;37.13;;;34.03;;
9222;SDS011;7557;51.698;3.942;2024-01-11T12:36:14;48.33;;;44.53;;
9222;SDS011;7557;51.698;3.942;2024-01-11T12:38:46;35.43;;;32.13;;
9222;SDS011;7557;51.698;3.942;2024-01-11T12:41:14;46.93;;;42.87;;
9222;SDS011;7557;51.698;3.942;2024-01-11T12:43:42;44.57;;;41.07;;
9222;SDS011;7557;51.698;3.942;2024-01-11T12:46:09;34.83;;;31.87;;
9222;SDS011;7557;51.698;3.942;2024-01-11T12:48:37;34.13;;;31.07;;
9222;SDS011;7557;51.698;3.942;2024-01-11T12:51:07;31.13;;;28.13;;
9222;SDS011;7557;51.698;3.942;2024-01-11T12:53:35;35.10;;;32.20;;
9222;SDS011;7557;51.698;3.942;2024-01-11T12:56:03;28.27;;;25.77;;
9222;SDS011;7557;51.698;3.942;2024-01-11T12:58:33;37.23;;;34.30;;
9222;SDS011;7557;51.698;3.942;2024-01-11T13:01:01;29.67;;;27.27;;
9222;SDS011;7557;51.698;3.942;2024-01-11T13:03:29;30.10;;;27.50;;
9222;SDS011;7557;51.698;3.942;2024-01-11T13:05:57;27.90;;;25.43;;
9222;SDS011;7557;51.698;3.942;2024-01-11T13:08:26;31.00;;;28.50;;
9222;SDS011;7557;51.698;3.942;2024-01-11T13:10:54;27.07;;;24.73;;
9222;SDS011;7557;51.698;3.942;2024-01-11T13:13:22;77.93;;;73.30;;
9222;SDS011;7557;51.698;3.942;2024-01-11T13:15:49;27.77;;;25.40;;
9222;SDS011;7557;51.698;3.942;2024-01-11T13:18:17;29.30;;;26.60;;
9222;SDS011;7557;51.698;3.942;2024-01-11T13:20:44;30.03;;;27.73;;
9222;SDS011;7557;51.698;3.942;2024-01-11T13:23:12;30.87;;;28.33;;
9222;SDS011;7557;51.698;3.942;2024-01-11T13:25:42;33.43;;;30.83;;
9222;SDS011;7557;51.698;3.942;2024-01-11T13:28:12;32.73;;;29.93;;
9222;SDS011;7557;51.698;3.942;2024-01-11T13:30:41;34.10;;;31.13;;
9222;SDS011;7557;51.698;3.942;2024-01-11T13:33:10;32.67;;;29.80;;
9222;SDS011;7557;51.698;3.942;2024-01-11T13:35:38;33.07;;;30.27;;
9222;SDS011;7557;51.698;3.942;2024-01-11T13:38:18;36.47;;;33.30;;
9222;SDS011;7557;51.698;3.942;2024-01-11T13:40:55;34.10;;;31.13;;
9222;SDS011;7557;51.698;3.942;2024-01-11T13:43:24;35.93;;;32.93;;
9222;SDS011;7557;51.698;3.942;2024-01-11T13:45:56;36.20;;;32.80;;
9222;SDS011;7557;51.698;3.942;2024-01-11T13:48:23;33.23;;;30.60;;
9222;SDS011;7557;51.698;3.942;2024-01-11T13:50:53;32.83;;;30.20;;
9222;SDS011;7557;51.698;3.942;2024-01-11T13:53:23;34.43;;;31.27;;
9222;SDS011;7557;51.698;3.942;2024-01-11T13:55:57;31.23;;;28.37;;
9222;SDS011;7557;51.698;3.942;2024-01-11T13:58:25;34.87;;;31.73;;
9222;SDS011;7557;51.698;3.942;2024-01-11T14:00:52;31.93;;;29.23;;
9222;SDS011;7557;51.698;3.942;2024-01-11T14:03:35;30.70;;;28.27;;
9222;SDS011;7557;51.698;3.942;2024-01-11T14:06:05;32.30;;;29.50;;
9222;SDS011;7557;51.698;3.942;2024-01-11T14:08:37;29.73;;;27.27;;
9222;SDS011;7557;51.698;3.942;2024-01-11T14:11:07;30.00;;;27.47;;
9222;SDS011;7557;51.698;3.942;2024-01-11T14:13:35;33.53;;;30.70;;
9222;SDS011;7557;51.698;3.942;2024-01-11T14:16:02;33.47;;;30.47;;
9222;SDS011;7557;51.698;3.942;2024-01-11T14:18:32;30.43;;;27.87;;
9222;SDS011;7557;51.698;3.942;2024-01-11T14:20:59;30.43;;;27.93;;
9222;SDS011;7557;51.698;3.942;2024-01-11T14:23:26;29.03;;;26.60;;
9222;SDS011;7557;51.698;3.942;2024-01-11T14:25:54;31.27;;;28.70;;
9222;SDS011;7557;51.698;3.942;2024-01-11T14:28:24;30.93;;;28.20;;
9222;SDS011;7557;51.698;3.942;2024-01-11T14:30:51;29.83;;;27.13;;
9222;SDS011;7557;51.698;3.942;2024-01-11T14:33:19;30.30;;;27.53;;
9222;SDS011;7557;51.698;3.942;2024-01-11T14:35:47;28.93;;;26.57;;
9222;SDS011;7557;51.698;3.942;2024-01-11T14:38:14;30.90;;;28.43;;
9222;SDS011;7557;51.698;3.942;2024-01-11T14:40:42;28.50;;;26.10;;
9222;SDS011;7557;51.698;3.942;2024-01-11T14:43:10;30.00;;;27.50;;
9222;SDS011;7557;51.698;3.942;2024-01-11T14:45:39;28.47;;;26.13;;
9222;SDS011;7557;51.698;3.942;2024-01-11T14:48:08;29.07;;;26.87;;
9222;SDS011;7557;51.698;3.942;2024-01-11T14:50:37;30.90;;;28.43;;
9222;SDS011;7557;51.698;3.942;2024-01-11T14:53:04;32.53;;;29.87;;
9222;SDS011;7557;51.698;3.942;2024-01-11T14:55:32;31.63;;;29.07;;